sensor_id;sensor_type;location;lat;lon;timestamp;P1;durP1;ratioP1;P2;durP2;ratioP2
9836;SDS011;4957;51.412;6.724;2023-07-13T00:01:47;3.53;;;1.10;;
9836;SDS011;4957;51.412;6.724;2023-07-13T00:04:15;2.67;;;1.10;;
9836;SDS011;4957;51.412;6.724;2023-07-13T00:06:42;3.60;;;1.03;;
9836;SDS011;4957;51.412;6.724;2023-07-13T00:09:10;4.80;;;1.33;;
9836;SDS011;4957;51.412;6.724;2023-07-13T00:11:38;6.00;;;1.47;;
9836;SDS011;4957;51.412;6.724;2023-07-13T00:14:03;6.27;;;1.33;;
9836;SDS011;4957;51.412;6.724;2023-07-13T00:16:29;2.70;;;1.43;;
9836;SDS011;4957;51.412;6.724;2023-07-13T00:18:55;4.77;;;1.60;;
9836;SDS011;4957;51.412;6.724;2023-07-13T00:21:20;3.63;;;1.23;;
9836;SDS011;4957;51.412;6.724;2023-07-13T00:23:46;3.33;;;0.97;;
9836;SDS011;4957;51.412;6.724;2023-07-13T00:26:12;5.50;;;1.37;;
9836;SDS011;4957;51.412;6.724;2023-07-13T00:28:38;4.17;;;1.40;;
9836;SDS011;4957;51.412;6.724;2023-07-13T00:31:04;8.27;;;1.80;;
9836;SDS011;4957;51.412;6.724;2023-07-13T00:33:30;4.37;;;1.23;;
9836;SDS011;4957;51.412;6.724;2023-07-13T00:35:56;6.00;;;1.27;;
9836;SDS011;4957;51.412;6.724;2023-07-13T00:38:22;7.73;;;1.40;;
9836;SDS011;4957;51.412;6.724;2023-07-13T00:40:48;2.30;;;1.00;;
9836;SDS011;4957;51.412;6.724;2023-07-13T00:43:16;2.40;;;1.00;;
9836;SDS011;4957;51.412;6.724;2023-07-13T00:48:09;9.03;;;1.77;;
9836;SDS011;4957;51.412;6.724;2023-07-13T00:50:37;6.53;;;1.60;;
9836;SDS011;4957;51.412;6.724;2023-07-13T00:53:04;3.90;;;1.53;;
9836;SDS011;4957;51.412;6.724;2023-07-13T00:55:29;5.93;;;1.70;;
9836;SDS011;4957;51.412;6.724;2023-07-13T00:58:13;2.37;;;1.23;;
9836;SDS011;4957;51.412;6.724;2023-07-13T01:00:40;9.10;;;1.50;;
9836;SDS011;4957;51.412;6.724;2023-07-13T01:03:06;1.57;;;1.07;;
9836;SDS011;4957;51.412;6.724;2023-07-13T01:05:32;4.80;;;1.67;;
9836;SDS011;4957;51.412;6.724;2023-07-13T01:07:59;5.03;;;1.70;;
9836;SDS011;4957;51.412;6.724;2023-07-13T01:10:27;5.77;;;1.57;;
9836;SDS011;4957;51.412;6.724;2023-07-13T01:12:53;3.60;;;1.50;;
9836;SDS011;4957;51.412;6.724;2023-07-13T01:18:23;7.67;;;1.80;;
9836;SDS011;4957;51.412;6.724;2023-07-13T01:20:58;7.40;;;1.47;;
9836;SDS011;4957;51.412;6.724;2023-07-13T01:23:26;6.23;;;1.67;;
9836;SDS011;4957;51.412;6.724;2023-07-13T01:25:53;6.10;;;1.80;;
9836;SDS011;4957;51.412;6.724;2023-07-13T01:28:20;5.13;;;1.70;;
9836;SDS011;4957;51.412;6.724;2023-07-13T01:30:47;5.13;;;1.40;;
9836;SDS011;4957;51.412;6.724;2023-07-13T01:33:14;4.60;;;1.77;;
9836;SDS011;4957;51.412;6.724;2023-07-13T01:35:41;9.00;;;1.80;;
9836;SDS011;4957;51.412;6.724;2023-07-13T01:38:08;5.20;;;1.77;;
9836;SDS011;4957;51.412;6.724;2023-07-13T01:40:35;4.17;;;1.53;;
9836;SDS011;4957;51.412;6.724;2023-07-13T01:43:02;4.23;;;1.63;;
9836;SDS011;4957;51.412;6.724;2023-07-13T01:45:28;2.53;;;1.27;;
9836;SDS011;4957;51.412;6.724;2023-07-13T01:47:54;4.67;;;1.50;;
9836;SDS011;4957;51.412;6.724;2023-07-13T01:50:19;4.10;;;1.70;;
9836;SDS011;4957;51.412;6.724;2023-07-13T01:52:45;5.27;;;1.57;;
9836;SDS011;4957;51.412;6.724;2023-07-13T01:55:11;4.60;;;1.50;;
9836;SDS011;4957;51.412;6.724;2023-07-13T01:57:37;5.43;;;1.40;;
9836;SDS011;4957;51.412;6.724;2023-07-13T02:00:03;4.20;;;1.70;;
9836;SDS011;4957;51.412;6.724;2023-07-13T02:02:30;3.83;;;1.30;;
9836;SDS011;4957;51.412;6.724;2023-07-13T02:04:56;3.57;;;1.57;;
9836;SDS011;4957;51.412;6.724;2023-07-13T02:07:22;5.43;;;2.00;;
9836;SDS011;4957;51.412;6.724;2023-07-13T02:09:47;5.83;;;1.53;;
9836;SDS011;4957;51.412;6.724;2023-07-13T02:12:13;10.60;;;1.73;;
9836;SDS011;4957;51.412;6.724;2023-07-13T02:14:39;5.70;;;1.67;;
9836;SDS011;4957;51.412;6.724;2023-07-13T02:17:04;4.30;;;1.60;;
9836;SDS011;4957;51.412;6.724;2023-07-13T02:19:30;3.53;;;1.60;;
9836;SDS011;4957;51.412;6.724;2023-07-13T02:21:56;4.23;;;1.40;;
9836;SDS011;4957;51.412;6.724;2023-07-13T02:24:22;3.83;;;1.57;;
9836;SDS011;4957;51.412;6.724;2023-07-13T02:26:47;5.70;;;1.73;;
9836;SDS011;4957;51.412;6.724;2023-07-13T02:29:13;5.17;;;1.30;;
9836;SDS011;4957;51.412;6.724;2023-07-13T02:31:39;3.70;;;1.43;;
9836;SDS011;4957;51.412;6.724;2023-07-13T02:34:05;3.60;;;1.23;;
9836;SDS011;4957;51.412;6.724;2023-07-13T02:36:31;4.80;;;1.70;;
9836;SDS011;4957;51.412;6.724;2023-07-13T02:39:00;2.77;;;1.33;;
9836;SDS011;4957;51.412;6.724;2023-07-13T02:41:27;3.50;;;1.53;;
9836;SDS011;4957;51.412;6.724;2023-07-13T02:43:53;5.97;;;1.60;;
9836;SDS011;4957;51.412;6.724;2023-07-13T02:46:21;3.63;;;1.73;;
9836;SDS011;4957;51.412;6.724;2023-07-13T02:48:49;6.43;;;2.20;;
9836;SDS011;4957;51.412;6.724;2023-07-13T02:51:14;2.57;;;1.83;;
9836;SDS011;4957;51.412;6.724;2023-07-13T02:53:40;4.47;;;1.53;;
9836;SDS011;4957;51.412;6.724;2023-07-13T02:56:06;6.77;;;1.73;;
9836;SDS011;4957;51.412;6.724;2023-07-13T02:58:32;5.63;;;1.50;;
9836;SDS011;4957;51.412;6.724;2023-07-13T03:01:05;3.83;;;1.73;;
9836;SDS011;4957;51.412;6.724;2023-07-13T03:03:32;6.70;;;2.17;;
9836;SDS011;4957;51.412;6.724;2023-07-13T03:05:58;3.23;;;1.57;;
9836;SDS011;4957;51.412;6.724;2023-07-13T03:08:27;10.07;;;1.73;;
9836;SDS011;4957;51.412;6.724;2023-07-13T03:11:02;3.80;;;1.83;;
9836;SDS011;4957;51.412;6.724;2023-07-13T03:13:33;8.17;;;2.40;;
9836;SDS011;4957;51.412;6.724;2023-07-13T03:15:58;6.40;;;1.80;;
9836;SDS011;4957;51.412;6.724;2023-07-13T03:18:26;5.07;;;1.60;;
9836;SDS011;4957;51.412;6.724;2023-07-13T03:20:52;6.20;;;1.83;;
9836;SDS011;4957;51.412;6.724;2023-07-13T03:23:19;5.47;;;1.90;;
9836;SDS011;4957;51.412;6.724;2023-07-13T03:25:46;8.00;;;1.60;;
9836;SDS011;4957;51.412;6.724;2023-07-13T03:28:12;3.50;;;1.60;;
9836;SDS011;4957;51.412;6.724;2023-07-13T03:30:38;3.63;;;1.70;;
9836;SDS011;4957;51.412;6.724;2023-07-13T03:33:04;6.37;;;1.97;;
9836;SDS011;4957;51.412;6.724;2023-07-13T03:35:30;3.93;;;1.67;;
9836;SDS011;4957;51.412;6.724;2023-07-13T03:37:57;5.10;;;1.87;;
9836;SDS011;4957;51.412;6.724;2023-07-13T03:40:24;9.83;;;1.97;;
9836;SDS011;4957;51.412;6.724;2023-07-13T03:42:51;3.60;;;1.70;;
9836;SDS011;4957;51.412;6.724;2023-07-13T03:45:17;6.17;;;1.67;;
9836;SDS011;4957;51.412;6.724;2023-07-13T03:47:43;4.83;;;1.83;;
9836;SDS011;4957;51.412;6.724;2023-07-13T03:50:09;6.77;;;2.00;;
9836;SDS011;4957;51.412;6.724;2023-07-13T03:52:35;4.27;;;1.67;;
9836;SDS011;4957;51.412;6.724;2023-07-13T03:55:00;7.73;;;1.70;;
9836;SDS011;4957;51.412;6.724;2023-07-13T03:57:26;4.33;;;1.30;;
9836;SDS011;4957;51.412;6.724;2023-07-13T03:59:52;5.93;;;1.90;;
9836;SDS011;4957;51.412;6.724;2023-07-13T04:02:17;10.93;;;2.47;;
9836;SDS011;4957;51.412;6.724;2023-07-13T04:04:43;4.23;;;1.80;;
9836;SDS011;4957;51.412;6.724;2023-07-13T04:07:09;10.80;;;2.20;;
9836;SDS011;4957;51.412;6.724;2023-07-13T04:09:35;6.20;;;1.73;;
9836;SDS011;4957;51.412;6.724;2023-07-13T04:12:01;9.10;;;1.90;;
9836;SDS011;4957;51.412;6.724;2023-07-13T04:14:27;4.90;;;1.77;;
9836;SDS011;4957;51.412;6.724;2023-07-13T04:16:52;6.00;;;2.23;;
9836;SDS011;4957;51.412;6.724;2023-07-13T04:19:20;5.83;;;1.87;;
9836;SDS011;4957;51.412;6.724;2023-07-13T04:21:45;6.63;;;1.73;;
9836;SDS011;4957;51.412;6.724;2023-07-13T04:24:11;5.83;;;1.87;;
9836;SDS011;4957;51.412;6.724;2023-07-13T04:26:38;6.00;;;1.60;;
9836;SDS011;4957;51.412;6.724;2023-07-13T04:29:05;5.23;;;1.80;;
9836;SDS011;4957;51.412;6.724;2023-07-13T04:31:31;11.00;;;1.90;;
9836;SDS011;4957;51.412;6.724;2023-07-13T04:33:57;2.87;;;1.83;;
9836;SDS011;4957;51.412;6.724;2023-07-13T04:36:24;5.40;;;1.40;;
9836;SDS011;4957;51.412;6.724;2023-07-13T04:38:52;6.83;;;2.27;;
9836;SDS011;4957;51.412;6.724;2023-07-13T04:41:19;5.13;;;1.73;;
9836;SDS011;4957;51.412;6.724;2023-07-13T04:43:46;4.07;;;1.70;;
9836;SDS011;4957;51.412;6.724;2023-07-13T04:46:13;4.53;;;1.87;;
9836;SDS011;4957;51.412;6.724;2023-07-13T04:48:42;14.90;;;1.90;;
9836;SDS011;4957;51.412;6.724;2023-07-13T04:51:08;3.73;;;2.17;;
9836;SDS011;4957;51.412;6.724;2023-07-13T04:53:33;6.70;;;1.60;;
9836;SDS011;4957;51.412;6.724;2023-07-13T04:56:00;5.30;;;2.27;;
9836;SDS011;4957;51.412;6.724;2023-07-13T04:58:26;4.17;;;1.63;;
9836;SDS011;4957;51.412;6.724;2023-07-13T05:00:52;6.97;;;2.53;;
9836;SDS011;4957;51.412;6.724;2023-07-13T05:03:18;10.20;;;2.43;;
9836;SDS011;4957;51.412;6.724;2023-07-13T05:05:54;6.80;;;2.60;;
9836;SDS011;4957;51.412;6.724;2023-07-13T05:08:24;6.47;;;2.20;;
9836;SDS011;4957;51.412;6.724;2023-07-13T05:10:51;7.33;;;2.37;;
9836;SDS011;4957;51.412;6.724;2023-07-13T05:13:17;2.67;;;1.93;;
9836;SDS011;4957;51.412;6.724;2023-07-13T05:15:43;4.93;;;1.80;;
9836;SDS011;4957;51.412;6.724;2023-07-13T05:18:08;3.40;;;2.10;;
9836;SDS011;4957;51.412;6.724;2023-07-13T05:20:34;12.13;;;2.50;;
9836;SDS011;4957;51.412;6.724;2023-07-13T05:23:00;8.73;;;2.67;;
9836;SDS011;4957;51.412;6.724;2023-07-13T05:25:25;3.17;;;1.90;;
9836;SDS011;4957;51.412;6.724;2023-07-13T05:27:52;7.87;;;2.20;;
9836;SDS011;4957;51.412;6.724;2023-07-13T05:30:17;6.17;;;1.97;;
9836;SDS011;4957;51.412;6.724;2023-07-13T05:32:43;6.27;;;2.13;;
9836;SDS011;4957;51.412;6.724;2023-07-13T05:35:09;7.43;;;1.90;;
9836;SDS011;4957;51.412;6.724;2023-07-13T05:37:37;8.90;;;2.77;;
9836;SDS011;4957;51.412;6.724;2023-07-13T05:40:03;11.13;;;1.93;;
9836;SDS011;4957;51.412;6.724;2023-07-13T05:42:29;9.27;;;2.50;;
9836;SDS011;4957;51.412;6.724;2023-07-13T05:44:56;9.40;;;2.57;;
9836;SDS011;4957;51.412;6.724;2023-07-13T05:47:22;9.50;;;2.03;;
9836;SDS011;4957;51.412;6.724;2023-07-13T05:49:47;12.37;;;3.30;;
9836;SDS011;4957;51.412;6.724;2023-07-13T05:52:13;5.77;;;1.83;;
9836;SDS011;4957;51.412;6.724;2023-07-13T05:54:39;6.70;;;2.40;;
9836;SDS011;4957;51.412;6.724;2023-07-13T05:57:04;10.27;;;2.67;;
9836;SDS011;4957;51.412;6.724;2023-07-13T05:59:30;5.93;;;2.30;;
9836;SDS011;4957;51.412;6.724;2023-07-13T06:01:56;9.97;;;2.70;;
9836;SDS011;4957;51.412;6.724;2023-07-13T06:04:21;10.83;;;2.80;;
9836;SDS011;4957;51.412;6.724;2023-07-13T06:06:47;6.33;;;2.40;;
9836;SDS011;4957;51.412;6.724;2023-07-13T06:09:13;7.43;;;2.50;;
9836;SDS011;4957;51.412;6.724;2023-07-13T06:11:38;11.17;;;2.43;;
9836;SDS011;4957;51.412;6.724;2023-07-13T06:14:04;8.30;;;2.53;;
9836;SDS011;4957;51.412;6.724;2023-07-13T06:16:30;7.73;;;2.30;;
9836;SDS011;4957;51.412;6.724;2023-07-13T06:18:55;11.40;;;2.97;;
9836;SDS011;4957;51.412;6.724;2023-07-13T06:21:22;6.13;;;2.40;;
9836;SDS011;4957;51.412;6.724;2023-07-13T06:23:49;7.33;;;2.37;;
9836;SDS011;4957;51.412;6.724;2023-07-13T06:26:16;9.17;;;2.43;;
9836;SDS011;4957;51.412;6.724;2023-07-13T06:28:43;12.00;;;3.00;;
9836;SDS011;4957;51.412;6.724;2023-07-13T06:31:09;8.67;;;2.87;;
9836;SDS011;4957;51.412;6.724;2023-07-13T06:33:37;9.33;;;2.60;;
9836;SDS011;4957;51.412;6.724;2023-07-13T06:36:03;8.40;;;2.73;;
9836;SDS011;4957;51.412;6.724;2023-07-13T06:38:30;8.97;;;2.90;;
9836;SDS011;4957;51.412;6.724;2023-07-13T06:40:56;7.73;;;2.70;;
9836;SDS011;4957;51.412;6.724;2023-07-13T06:43:22;6.53;;;2.23;;
9836;SDS011;4957;51.412;6.724;2023-07-13T06:45:49;7.03;;;2.37;;
9836;SDS011;4957;51.412;6.724;2023-07-13T06:48:19;7.13;;;2.37;;
9836;SDS011;4957;51.412;6.724;2023-07-13T06:50:45;7.43;;;2.33;;
9836;SDS011;4957;51.412;6.724;2023-07-13T06:53:11;9.47;;;2.97;;
9836;SDS011;4957;51.412;6.724;2023-07-13T06:55:37;7.23;;;2.40;;
9836;SDS011;4957;51.412;6.724;2023-07-13T06:58:03;7.67;;;2.23;;
9836;SDS011;4957;51.412;6.724;2023-07-13T07:00:29;6.47;;;2.63;;
9836;SDS011;4957;51.412;6.724;2023-07-13T07:02:55;7.50;;;2.60;;
9836;SDS011;4957;51.412;6.724;2023-07-13T07:05:21;7.23;;;2.50;;
9836;SDS011;4957;51.412;6.724;2023-07-13T07:07:50;8.17;;;3.00;;
9836;SDS011;4957;51.412;6.724;2023-07-13T07:10:17;6.67;;;2.40;;
9836;SDS011;4957;51.412;6.724;2023-07-13T07:12:43;10.40;;;3.23;;
9836;SDS011;4957;51.412;6.724;2023-07-13T07:15:09;11.67;;;3.40;;
9836;SDS011;4957;51.412;6.724;2023-07-13T07:17:35;6.47;;;2.90;;
9836;SDS011;4957;51.412;6.724;2023-07-13T07:20:01;8.93;;;2.97;;
9836;SDS011;4957;51.412;6.724;2023-07-13T07:22:28;8.30;;;2.93;;
9836;SDS011;4957;51.412;6.724;2023-07-13T07:24:55;10.63;;;2.70;;
9836;SDS011;4957;51.412;6.724;2023-07-13T07:27:21;8.60;;;2.70;;
9836;SDS011;4957;51.412;6.724;2023-07-13T07:29:46;5.87;;;2.33;;
9836;SDS011;4957;51.412;6.724;2023-07-13T07:32:12;8.30;;;2.27;;
9836;SDS011;4957;51.412;6.724;2023-07-13T07:34:38;10.50;;;3.20;;
9836;SDS011;4957;51.412;6.724;2023-07-13T07:37:04;8.47;;;3.00;;
9836;SDS011;4957;51.412;6.724;2023-07-13T07:39:30;7.47;;;2.97;;
9836;SDS011;4957;51.412;6.724;2023-07-13T07:41:56;6.30;;;2.60;;
9836;SDS011;4957;51.412;6.724;2023-07-13T07:44:22;7.33;;;2.43;;
9836;SDS011;4957;51.412;6.724;2023-07-13T07:46:47;7.50;;;2.60;;
9836;SDS011;4957;51.412;6.724;2023-07-13T07:49:13;10.37;;;3.00;;
9836;SDS011;4957;51.412;6.724;2023-07-13T07:51:39;6.73;;;2.40;;
9836;SDS011;4957;51.412;6.724;2023-07-13T07:54:05;9.30;;;2.83;;
9836;SDS011;4957;51.412;6.724;2023-07-13T07:56:31;11.17;;;2.87;;
9836;SDS011;4957;51.412;6.724;2023-07-13T07:58:57;7.33;;;2.33;;
9836;SDS011;4957;51.412;6.724;2023-07-13T08:01:23;9.93;;;2.30;;
9836;SDS011;4957;51.412;6.724;2023-07-13T08:03:48;9.47;;;2.50;;
9836;SDS011;4957;51.412;6.724;2023-07-13T08:06:14;9.63;;;2.60;;
9836;SDS011;4957;51.412;6.724;2023-07-13T08:08:40;8.33;;;2.57;;
9836;SDS011;4957;51.412;6.724;2023-07-13T08:11:06;6.00;;;2.43;;
9836;SDS011;4957;51.412;6.724;2023-07-13T08:13:34;6.93;;;2.67;;
9836;SDS011;4957;51.412;6.724;2023-07-13T08:16:00;7.03;;;2.57;;
9836;SDS011;4957;51.412;6.724;2023-07-13T08:18:26;7.80;;;2.93;;
9836;SDS011;4957;51.412;6.724;2023-07-13T08:20:53;3.60;;;2.20;;
9836;SDS011;4957;51.412;6.724;2023-07-13T08:23:21;7.07;;;2.20;;
9836;SDS011;4957;51.412;6.724;2023-07-13T08:25:53;7.57;;;3.10;;
9836;SDS011;4957;51.412;6.724;2023-07-13T08:28:20;9.73;;;2.70;;
9836;SDS011;4957;51.412;6.724;2023-07-13T08:30:46;7.00;;;2.50;;
9836;SDS011;4957;51.412;6.724;2023-07-13T08:33:14;8.87;;;2.27;;
9836;SDS011;4957;51.412;6.724;2023-07-13T08:35:40;9.17;;;2.83;;
9836;SDS011;4957;51.412;6.724;2023-07-13T08:38:06;7.63;;;2.40;;
9836;SDS011;4957;51.412;6.724;2023-07-13T08:40:32;5.07;;;2.17;;
9836;SDS011;4957;51.412;6.724;2023-07-13T08:42:59;6.33;;;2.60;;
9836;SDS011;4957;51.412;6.724;2023-07-13T08:45:30;5.13;;;2.23;;
9836;SDS011;4957;51.412;6.724;2023-07-13T08:48:10;9.83;;;2.33;;
9836;SDS011;4957;51.412;6.724;2023-07-13T08:50:45;6.33;;;2.03;;
9836;SDS011;4957;51.412;6.724;2023-07-13T08:53:27;4.93;;;1.90;;
9836;SDS011;4957;51.412;6.724;2023-07-13T08:56:00;4.30;;;2.47;;
9836;SDS011;4957;51.412;6.724;2023-07-13T08:58:26;5.33;;;2.13;;
9836;SDS011;4957;51.412;6.724;2023-07-13T09:01:02;6.40;;;2.10;;
9836;SDS011;4957;51.412;6.724;2023-07-13T09:03:42;8.50;;;2.57;;
9836;SDS011;4957;51.412;6.724;2023-07-13T09:06:16;7.77;;;2.63;;
9836;SDS011;4957;51.412;6.724;2023-07-13T09:08:52;7.70;;;3.03;;
9836;SDS011;4957;51.412;6.724;2023-07-13T09:11:31;4.73;;;2.20;;
9836;SDS011;4957;51.412;6.724;2023-07-13T09:16:54;7.43;;;2.83;;
9836;SDS011;4957;51.412;6.724;2023-07-13T09:19:22;8.67;;;2.30;;
9836;SDS011;4957;51.412;6.724;2023-07-13T09:21:53;8.37;;;3.03;;
9836;SDS011;4957;51.412;6.724;2023-07-13T09:27:01;6.67;;;2.00;;
9836;SDS011;4957;51.412;6.724;2023-07-13T09:29:35;7.23;;;2.40;;
9836;SDS011;4957;51.412;6.724;2023-07-13T09:32:09;6.33;;;2.60;;
9836;SDS011;4957;51.412;6.724;2023-07-13T09:34:39;9.50;;;2.50;;
9836;SDS011;4957;51.412;6.724;2023-07-13T09:37:05;6.37;;;2.40;;
9836;SDS011;4957;51.412;6.724;2023-07-13T09:39:38;6.93;;;2.13;;
9836;SDS011;4957;51.412;6.724;2023-07-13T09:42:15;6.97;;;2.30;;
9836;SDS011;4957;51.412;6.724;2023-07-13T09:47:24;7.47;;;2.07;;
9836;SDS011;4957;51.412;6.724;2023-07-13T09:50:00;7.77;;;2.67;;
9836;SDS011;4957;51.412;6.724;2023-07-13T09:52:39;8.23;;;2.30;;
9836;SDS011;4957;51.412;6.724;2023-07-13T09:55:32;6.20;;;2.10;;
9836;SDS011;4957;51.412;6.724;2023-07-13T09:58:03;7.53;;;2.00;;
9836;SDS011;4957;51.412;6.724;2023-07-13T10:00:40;5.97;;;2.07;;
9836;SDS011;4957;51.412;6.724;2023-07-13T10:03:14;5.80;;;2.03;;
9836;SDS011;4957;51.412;6.724;2023-07-13T10:05:44;4.80;;;2.00;;
9836;SDS011;4957;51.412;6.724;2023-07-13T10:08:16;5.30;;;1.80;;
9836;SDS011;4957;51.412;6.724;2023-07-13T10:11:08;4.70;;;2.23;;
9836;SDS011;4957;51.412;6.724;2023-07-13T10:13:37;6.17;;;2.07;;
9836;SDS011;4957;51.412;6.724;2023-07-13T10:16:07;4.73;;;1.90;;
9836;SDS011;4957;51.412;6.724;2023-07-13T10:18:48;5.23;;;2.30;;
9836;SDS011;4957;51.412;6.724;2023-07-13T10:21:17;4.73;;;2.00;;
9836;SDS011;4957;51.412;6.724;2023-07-13T10:23:55;6.13;;;2.10;;
9836;SDS011;4957;51.412;6.724;2023-07-13T10:26:34;5.77;;;2.10;;
9836;SDS011;4957;51.412;6.724;2023-07-13T10:29:02;3.67;;;1.97;;
9836;SDS011;4957;51.412;6.724;2023-07-13T10:31:32;3.77;;;1.80;;
9836;SDS011;4957;51.412;6.724;2023-07-13T10:33:59;5.13;;;2.03;;
9836;SDS011;4957;51.412;6.724;2023-07-13T10:36:39;3.70;;;1.70;;
9836;SDS011;4957;51.412;6.724;2023-07-13T10:39:09;6.83;;;1.77;;
9836;SDS011;4957;51.412;6.724;2023-07-13T10:41:44;7.23;;;2.03;;
9836;SDS011;4957;51.412;6.724;2023-07-13T10:44:19;7.10;;;1.97;;
9836;SDS011;4957;51.412;6.724;2023-07-13T10:46:51;3.30;;;1.90;;
9836;SDS011;4957;51.412;6.724;2023-07-13T10:49:19;4.47;;;2.07;;
9836;SDS011;4957;51.412;6.724;2023-07-13T10:51:46;3.40;;;1.90;;
9836;SDS011;4957;51.412;6.724;2023-07-13T10:56:48;5.30;;;1.60;;
9836;SDS011;4957;51.412;6.724;2023-07-13T10:59:33;3.73;;;1.70;;
9836;SDS011;4957;51.412;6.724;2023-07-13T11:02:09;6.47;;;1.87;;
9836;SDS011;4957;51.412;6.724;2023-07-13T11:04:42;4.80;;;2.00;;
9836;SDS011;4957;51.412;6.724;2023-07-13T11:09:49;5.87;;;2.03;;
9836;SDS011;4957;51.412;6.724;2023-07-13T11:22:49;4.30;;;1.80;;
9836;SDS011;4957;51.412;6.724;2023-07-13T11:27:46;5.57;;;1.77;;
9836;SDS011;4957;51.412;6.724;2023-07-13T11:33:02;2.93;;;1.97;;
9836;SDS011;4957;51.412;6.724;2023-07-13T11:35:31;3.07;;;1.43;;
9836;SDS011;4957;51.412;6.724;2023-07-13T11:38:01;4.90;;;2.17;;
9836;SDS011;4957;51.412;6.724;2023-07-13T11:40:28;6.43;;;1.70;;
9836;SDS011;4957;51.412;6.724;2023-07-13T11:43:01;3.37;;;1.37;;
9836;SDS011;4957;51.412;6.724;2023-07-13T11:45:31;6.20;;;1.80;;
9836;SDS011;4957;51.412;6.724;2023-07-13T11:47:57;3.00;;;1.60;;
9836;SDS011;4957;51.412;6.724;2023-07-13T11:50:25;3.93;;;1.70;;
9836;SDS011;4957;51.412;6.724;2023-07-13T11:52:52;6.50;;;1.43;;
9836;SDS011;4957;51.412;6.724;2023-07-13T11:55:21;6.33;;;1.43;;
9836;SDS011;4957;51.412;6.724;2023-07-13T11:57:50;5.77;;;1.67;;
9836;SDS011;4957;51.412;6.724;2023-07-13T12:00:22;3.53;;;1.30;;
9836;SDS011;4957;51.412;6.724;2023-07-13T12:02:52;4.57;;;1.67;;
9836;SDS011;4957;51.412;6.724;2023-07-13T12:05:20;3.17;;;1.50;;
9836;SDS011;4957;51.412;6.724;2023-07-13T12:07:47;3.07;;;1.50;;
9836;SDS011;4957;51.412;6.724;2023-07-13T12:10:17;3.67;;;1.40;;
9836;SDS011;4957;51.412;6.724;2023-07-13T12:12:52;3.53;;;1.43;;
9836;SDS011;4957;51.412;6.724;2023-07-13T12:15:37;3.80;;;1.57;;
9836;SDS011;4957;51.412;6.724;2023-07-13T12:18:19;3.97;;;1.67;;
9836;SDS011;4957;51.412;6.724;2023-07-13T12:20:47;6.93;;;1.80;;
9836;SDS011;4957;51.412;6.724;2023-07-13T12:23:25;2.80;;;1.43;;
9836;SDS011;4957;51.412;6.724;2023-07-13T12:25:58;5.40;;;1.40;;
9836;SDS011;4957;51.412;6.724;2023-07-13T12:28:38;4.27;;;1.43;;
9836;SDS011;4957;51.412;6.724;2023-07-13T12:33:55;4.57;;;1.47;;
9836;SDS011;4957;51.412;6.724;2023-07-13T12:36:23;5.90;;;1.50;;
9836;SDS011;4957;51.412;6.724;2023-07-13T12:38:49;5.87;;;1.90;;
9836;SDS011;4957;51.412;6.724;2023-07-13T12:41:16;2.50;;;1.50;;
9836;SDS011;4957;51.412;6.724;2023-07-13T12:43:42;3.73;;;1.60;;
9836;SDS011;4957;51.412;6.724;2023-07-13T12:48:53;2.53;;;1.40;;
9836;SDS011;4957;51.412;6.724;2023-07-13T12:51:24;2.03;;;1.37;;
9836;SDS011;4957;51.412;6.724;2023-07-13T12:53:59;3.97;;;1.53;;
9836;SDS011;4957;51.412;6.724;2023-07-13T12:56:37;3.93;;;1.80;;
9836;SDS011;4957;51.412;6.724;2023-07-13T12:59:03;3.53;;;1.67;;
9836;SDS011;4957;51.412;6.724;2023-07-13T13:01:32;4.10;;;1.90;;
9836;SDS011;4957;51.412;6.724;2023-07-13T13:04:02;5.17;;;1.73;;
9836;SDS011;4957;51.412;6.724;2023-07-13T13:06:31;6.37;;;1.63;;
9836;SDS011;4957;51.412;6.724;2023-07-13T13:08:58;3.30;;;1.60;;
9836;SDS011;4957;51.412;6.724;2023-07-13T13:11:25;4.40;;;1.60;;
9836;SDS011;4957;51.412;6.724;2023-07-13T13:13:52;2.93;;;1.47;;
9836;SDS011;4957;51.412;6.724;2023-07-13T13:18:54;1.57;;;1.20;;
9836;SDS011;4957;51.412;6.724;2023-07-13T13:21:22;5.10;;;1.23;;
9836;SDS011;4957;51.412;6.724;2023-07-13T13:23:48;4.13;;;1.40;;
9836;SDS011;4957;51.412;6.724;2023-07-13T13:26:16;4.60;;;1.30;;
9836;SDS011;4957;51.412;6.724;2023-07-13T13:28:43;6.90;;;1.40;;
9836;SDS011;4957;51.412;6.724;2023-07-13T13:31:10;5.03;;;1.40;;
9836;SDS011;4957;51.412;6.724;2023-07-13T13:33:37;3.30;;;1.60;;
9836;SDS011;4957;51.412;6.724;2023-07-13T13:36:19;4.47;;;1.67;;
9836;SDS011;4957;51.412;6.724;2023-07-13T13:38:47;3.67;;;1.80;;
9836;SDS011;4957;51.412;6.724;2023-07-13T13:41:14;4.57;;;1.50;;
9836;SDS011;4957;51.412;6.724;2023-07-13T13:43:41;4.37;;;1.60;;
9836;SDS011;4957;51.412;6.724;2023-07-13T13:46:15;2.80;;;1.60;;
9836;SDS011;4957;51.412;6.724;2023-07-13T13:48:50;2.03;;;1.30;;
9836;SDS011;4957;51.412;6.724;2023-07-13T13:51:20;3.07;;;1.40;;
9836;SDS011;4957;51.412;6.724;2023-07-13T13:53:48;2.87;;;1.80;;
9836;SDS011;4957;51.412;6.724;2023-07-13T13:56:14;3.03;;;1.30;;
9836;SDS011;4957;51.412;6.724;2023-07-13T13:58:41;3.50;;;1.57;;
9836;SDS011;4957;51.412;6.724;2023-07-13T14:01:14;3.67;;;1.50;;
9836;SDS011;4957;51.412;6.724;2023-07-13T14:03:43;1.87;;;1.27;;
9836;SDS011;4957;51.412;6.724;2023-07-13T14:06:15;4.27;;;1.43;;
9836;SDS011;4957;51.412;6.724;2023-07-13T14:08:42;7.70;;;1.57;;
9836;SDS011;4957;51.412;6.724;2023-07-13T14:11:12;2.97;;;1.30;;
9836;SDS011;4957;51.412;6.724;2023-07-13T14:13:40;8.13;;;2.00;;
9836;SDS011;4957;51.412;6.724;2023-07-13T14:16:15;3.80;;;1.80;;
9836;SDS011;4957;51.412;6.724;2023-07-13T14:18:46;2.67;;;1.53;;
9836;SDS011;4957;51.412;6.724;2023-07-13T14:21:16;7.00;;;1.60;;
9836;SDS011;4957;51.412;6.724;2023-07-13T14:23:43;3.20;;;1.90;;
9836;SDS011;4957;51.412;6.724;2023-07-13T14:26:18;3.27;;;1.80;;
9836;SDS011;4957;51.412;6.724;2023-07-13T14:28:47;5.87;;;2.30;;
9836;SDS011;4957;51.412;6.724;2023-07-13T14:31:15;4.90;;;2.20;;
9836;SDS011;4957;51.412;6.724;2023-07-13T14:33:42;4.07;;;2.00;;
9836;SDS011;4957;51.412;6.724;2023-07-13T14:38:57;4.63;;;1.93;;
9836;SDS011;4957;51.412;6.724;2023-07-13T14:41:24;3.00;;;1.63;;
9836;SDS011;4957;51.412;6.724;2023-07-13T14:43:51;3.77;;;1.67;;
9836;SDS011;4957;51.412;6.724;2023-07-13T14:46:30;2.77;;;1.60;;
9836;SDS011;4957;51.412;6.724;2023-07-13T14:49:03;5.57;;;1.80;;
9836;SDS011;4957;51.412;6.724;2023-07-13T14:51:32;3.77;;;2.00;;
9836;SDS011;4957;51.412;6.724;2023-07-13T14:54:02;4.17;;;1.50;;
9836;SDS011;4957;51.412;6.724;2023-07-13T14:56:30;5.03;;;1.90;;
9836;SDS011;4957;51.412;6.724;2023-07-13T14:58:56;4.50;;;2.13;;
9836;SDS011;4957;51.412;6.724;2023-07-13T15:01:22;8.07;;;1.80;;
9836;SDS011;4957;51.412;6.724;2023-07-13T15:03:49;4.53;;;1.53;;
9836;SDS011;4957;51.412;6.724;2023-07-13T15:06:16;4.07;;;1.80;;
9836;SDS011;4957;51.412;6.724;2023-07-13T15:08:45;3.30;;;1.67;;
9836;SDS011;4957;51.412;6.724;2023-07-13T15:11:12;2.80;;;1.50;;
9836;SDS011;4957;51.412;6.724;2023-07-13T15:13:38;4.20;;;1.33;;
9836;SDS011;4957;51.412;6.724;2023-07-13T15:16:10;10.10;;;1.73;;
9836;SDS011;4957;51.412;6.724;2023-07-13T15:18:43;2.90;;;1.20;;
9836;SDS011;4957;51.412;6.724;2023-07-13T15:21:11;2.57;;;1.00;;
9836;SDS011;4957;51.412;6.724;2023-07-13T15:23:46;2.17;;;1.30;;
9836;SDS011;4957;51.412;6.724;2023-07-13T15:26:15;2.03;;;1.17;;
9836;SDS011;4957;51.412;6.724;2023-07-13T15:28:42;3.03;;;1.37;;
9836;SDS011;4957;51.412;6.724;2023-07-13T15:31:22;5.40;;;1.60;;
9836;SDS011;4957;51.412;6.724;2023-07-13T15:33:51;2.73;;;1.47;;
9836;SDS011;4957;51.412;6.724;2023-07-13T15:36:18;2.40;;;1.20;;
9836;SDS011;4957;51.412;6.724;2023-07-13T15:38:45;2.17;;;1.60;;
9836;SDS011;4957;51.412;6.724;2023-07-13T15:41:25;3.00;;;1.60;;
9836;SDS011;4957;51.412;6.724;2023-07-13T15:43:53;3.27;;;1.53;;
9836;SDS011;4957;51.412;6.724;2023-07-13T15:46:20;2.10;;;1.17;;
9836;SDS011;4957;51.412;6.724;2023-07-13T15:48:48;2.30;;;1.40;;
9836;SDS011;4957;51.412;6.724;2023-07-13T15:51:25;7.30;;;2.13;;
9836;SDS011;4957;51.412;6.724;2023-07-13T15:53:58;2.07;;;1.23;;
9836;SDS011;4957;51.412;6.724;2023-07-13T15:56:29;3.17;;;1.33;;
9836;SDS011;4957;51.412;6.724;2023-07-13T15:58:58;2.90;;;1.10;;
9836;SDS011;4957;51.412;6.724;2023-07-13T16:01:24;3.13;;;1.67;;
9836;SDS011;4957;51.412;6.724;2023-07-13T16:03:50;2.07;;;1.30;;
9836;SDS011;4957;51.412;6.724;2023-07-13T16:06:19;2.57;;;1.70;;
9836;SDS011;4957;51.412;6.724;2023-07-13T16:08:57;2.70;;;1.50;;